Ocala, FL (34471)

5:18 AM EDT on October 01, 2014 (GMT -0400)
Brookstone-II | Change Station
CLOSE
Current Station
Personal Weather Station
Location: Ocala, FL
Elevation: 144 ft
Nearby Weather Stations

Elev 144 ft 29.15 °N, 82.13 °W | Updated 8 minutes ago

Mostly Cloudy
Mostly Cloudy
72.3 °F
Feels Like 72.3 °F
N
0.0
Wind Variable Wind from NE
Gusts 0.0 mph

Today
High -- | Low -- °F
--% Chance of Precip.
Yesterday
High -- | Low -- °F
Precip. -- in
7:21 AM 7:14 PM
Waxing Crescent, 45% visible
Pressure 29.87 in
Visibility 10.0 miles
Clouds Clear
Dew Point 71 °F
Humidity 96%
Rainfall 0.00 in
Snow Depth Not available.
UV 0 out of 12
Pollen 3.40 out of 12
Air Quality Not available.
Flu Activity Not available.
METAR KOCF 010835Z AUTO 03003KT 10SM CLR 22/21 A2987 RMK AO1

More Conditions Fewer Conditions

Pressure 29.87 in
Visibility 10.0 miles
Clouds Clear
Dew Point 71 °F
Humidity 96%
Rainfall 0.00 in
Snow Depth Not available.
UV 0 out of 12
Pollen 3.40 out of 12
Air Quality Not available.
Flu Activity Not available.
METAR KOCF 010835Z AUTO 03003KT 10SM CLR 22/21 A2987 RMK AO1

More Conditions Fewer Conditions

10-Day Weather Forecast

Almanac

Astronomy

Oct. 01, 2014 Rise Set
Actual Time 7:21 AM EDT 7:14 PM EDT
Civil Twilight 6:57 AM EDT 7:37 PM EDT
Nautical Twilight 6:30 AM EDT 8:05 PM EDT
Astronomical Twilight 6:02 AM EDT 8:32 PM EDT
Moon 2:01 PM EDT 12:04 AM EDT
Length of Visible Light 12h 39m
Length of Day
11h 52m
Tomorrow will be 1m 44s shorter.
Waxing Crescent, 45% of the Moon is Illuminated
Today
Waxing Crescent
Oct 1
First Quarter
Oct 8
Full
Oct 15
Last Quarter
Oct 23
New

Today's Extremes

State Highs State Lows

Community

WunderPhotos

Upload Photos

1,757,902 photos uploaded!

WunderBlogs® & News

Nearby

Snow Depth

Station Depth Elevation
No new snow has been reported.

Earthquake Activity

City Distance Mag. Time & Date
No recent earthquake activity has been reported nearby.
Minimum magnitude displayed is 2.5.

Coastal Water Temperatures

Place Temperature
No Stations Reporting

Nearby Weather Stations